createdAt,value
2023-02-01T00:01:09.560Z,62.00
2023-02-01T00:03:37.169Z,61.74
2023-02-01T00:06:04.876Z,60.91
2023-02-01T00:08:32.283Z,60.59
2023-02-01T00:11:04.555Z,60.33
2023-02-01T00:13:34.357Z,60.30
2023-02-01T00:16:10.847Z,60.35
2023-02-01T00:18:38.579Z,60.86
2023-02-01T00:21:06.148Z,60.53
2023-02-01T00:23:35.643Z,59.89
2023-02-01T00:26:04.568Z,59.94
2023-02-01T00:28:32.461Z,59.29
2023-02-01T00:31:00.278Z,59.36
2023-02-01T00:33:29.267Z,63.40
2023-02-01T00:36:04.520Z,64.47
2023-02-01T00:38:32.238Z,62.20
2023-02-01T00:41:08.490Z,61.86
2023-02-01T00:43:36.231Z,61.53
2023-02-01T00:46:04.389Z,60.56
2023-02-01T00:48:32.088Z,61.09
2023-02-01T00:51:08.780Z,60.14
2023-02-01T00:53:36.952Z,62.19
2023-02-01T00:56:05.113Z,62.17
2023-02-01T00:58:33.703Z,61.86
2023-02-01T01:01:11.029Z,62.31
2023-02-01T01:03:40.782Z,62.94
2023-02-01T01:06:11.564Z,62.85
2023-02-01T01:08:39.828Z,63.83
2023-02-01T01:11:16.275Z,63.45
2023-02-01T01:13:43.887Z,63.37
2023-02-01T01:16:12.638Z,63.12
2023-02-01T01:18:40.379Z,62.44
2023-02-01T01:21:09.970Z,61.58
2023-02-01T01:23:38.227Z,61.41
2023-02-01T01:26:15.953Z,60.95
2023-02-01T01:28:43.751Z,60.53
2023-02-01T01:31:12.899Z,60.67
2023-02-01T01:33:40.634Z,60.92
2023-02-01T01:36:12.432Z,61.03
2023-02-01T01:38:41.358Z,60.78
2023-02-01T01:41:10.766Z,61.20
2023-02-01T01:43:59.730Z,61.45
2023-02-01T01:46:42.252Z,60.73
2023-02-01T01:49:18.805Z,60.96
2023-02-01T01:51:54.102Z,60.49
2023-02-01T01:54:27.316Z,60.05
2023-02-01T01:57:01.985Z,60.52
2023-02-01T01:59:33.214Z,60.43
2023-02-01T02:05:01.532Z,59.66
2023-02-01T02:07:33.629Z,58.82
2023-02-01T02:10:01.961Z,63.12
2023-02-01T02:12:29.905Z,65.61
2023-02-01T02:14:57.325Z,63.95
2023-02-01T02:17:41.507Z,63.40
2023-02-01T02:20:33.511Z,61.80
2023-02-01T02:23:33.791Z,60.81
2023-02-01T02:26:25.445Z,60.11
2023-02-01T02:29:18.684Z,59.87
2023-02-01T02:32:23.180Z,58.13
2023-02-01T02:34:58.867Z,61.86
2023-02-01T02:37:54.551Z,64.39
2023-02-01T02:40:29.596Z,63.08
2023-02-01T02:43:40.851Z,62.43
2023-02-01T02:46:56.046Z,62.56
2023-02-01T02:49:30.645Z,62.10
2023-02-01T02:52:24.442Z,60.94
2023-02-01T02:54:55.849Z,60.64
2023-02-01T02:57:56.858Z,60.00
2023-02-01T03:00:48.544Z,60.54
2023-02-01T03:03:34.576Z,60.02
2023-02-01T03:06:02.378Z,59.73
2023-02-01T03:08:32.418Z,59.45
2023-02-01T03:11:14.451Z,57.99
2023-02-01T03:13:54.446Z,60.90
2023-02-01T03:16:36.139Z,65.32
2023-02-01T03:19:05.151Z,66.11
2023-02-01T03:21:39.046Z,64.74
2023-02-01T03:24:34.767Z,63.43
2023-02-01T03:27:20.097Z,62.37
2023-02-01T03:30:11.050Z,62.50
2023-02-01T03:33:03.663Z,62.06
2023-02-01T03:35:38.363Z,61.11
2023-02-01T03:38:19.909Z,60.54
2023-02-01T03:40:51.208Z,60.26
2023-02-01T03:43:21.159Z,60.20
2023-02-01T03:45:54.855Z,60.77
2023-02-01T03:48:24.826Z,60.89
2023-02-01T03:50:55.358Z,61.65
2023-02-01T03:53:25.232Z,60.45
2023-02-01T03:55:54.353Z,59.87
2023-02-01T03:58:24.062Z,58.55
2023-02-01T04:01:00.631Z,60.28
2023-02-01T04:03:28.732Z,65.27
2023-02-01T04:05:56.539Z,65.83
2023-02-01T04:08:26.610Z,64.73
2023-02-01T04:10:53.875Z,63.02
2023-02-01T04:13:21.062Z,62.23
2023-02-01T04:15:51.444Z,62.30
2023-02-01T04:18:18.644Z,62.15
2023-02-01T04:20:46.391Z,62.09
2023-02-01T04:23:13.861Z,61.31
2023-02-01T04:25:41.155Z,61.01
2023-02-01T04:28:08.421Z,61.36
2023-02-01T04:30:35.859Z,60.79
2023-02-01T04:33:06.792Z,60.40
2023-02-01T04:35:33.952Z,61.08
2023-02-01T04:38:01.881Z,60.23
2023-02-01T04:40:29.106Z,59.31
2023-02-01T04:42:56.369Z,59.60
2023-02-01T04:45:24.911Z,63.18
2023-02-01T04:47:52.186Z,65.26
2023-02-01T04:50:19.423Z,64.01
2023-02-01T04:52:46.792Z,62.89
2023-02-01T04:55:17.576Z,62.41
2023-02-01T04:57:44.860Z,61.86
2023-02-01T05:00:12.659Z,61.03
2023-02-01T05:02:39.991Z,60.65
2023-02-01T05:05:07.561Z,61.06
2023-02-01T05:07:34.992Z,60.60
2023-02-01T05:10:02.246Z,59.59
2023-02-01T05:12:47.846Z,58.94
2023-02-01T05:15:15.272Z,59.63
2023-02-01T05:17:42.573Z,63.97
2023-02-01T05:20:10.911Z,64.50
2023-02-01T05:22:38.440Z,63.80
2023-02-01T05:25:08.253Z,62.59
2023-02-01T05:27:36.098Z,61.66
2023-02-01T05:30:05.882Z,61.05
2023-02-01T05:32:33.571Z,61.05
2023-02-01T05:35:01.184Z,60.59
2023-02-01T05:37:28.589Z,60.42
2023-02-01T05:39:55.879Z,60.34
2023-02-01T05:42:23.334Z,60.09
2023-02-01T05:44:50.563Z,60.24
2023-02-01T05:47:17.880Z,60.42
2023-02-01T05:49:45.283Z,60.05
2023-02-01T05:52:12.571Z,59.32
2023-02-01T05:54:40.025Z,58.85
2023-02-01T05:57:07.570Z,62.31
2023-02-01T05:59:34.941Z,65.11
2023-02-01T06:02:02.249Z,64.96
2023-02-01T06:04:29.529Z,63.85
2023-02-01T06:06:57.042Z,62.35
2023-02-01T06:09:24.295Z,60.97
2023-02-01T06:11:51.789Z,60.50
2023-02-01T06:14:19.228Z,59.77
2023-02-01T06:16:48.078Z,57.91
2023-02-01T06:19:15.430Z,60.62
2023-02-01T06:21:42.776Z,62.78
2023-02-01T06:24:11.246Z,64.97
2023-02-01T06:26:38.761Z,63.49
2023-02-01T06:29:08.013Z,62.37
2023-02-01T06:31:35.173Z,61.21
2023-02-01T06:34:02.598Z,60.41
2023-02-01T06:36:30.310Z,60.07
2023-02-01T06:38:58.129Z,58.57
2023-02-01T06:41:27.205Z,57.95
2023-02-01T06:43:56.505Z,62.65
2023-02-01T06:46:24.014Z,64.84
2023-02-01T06:48:52.505Z,64.61
2023-02-01T06:51:25.263Z,63.79
2023-02-01T06:53:52.665Z,63.35
2023-02-01T06:56:20.882Z,62.89
2023-02-01T06:58:48.275Z,61.79
2023-02-01T07:01:16.747Z,61.04
2023-02-01T07:03:44.714Z,60.24
2023-02-01T07:06:12.393Z,59.57
2023-02-01T07:08:40.141Z,58.24
2023-02-01T07:11:29.282Z,58.54
2023-02-01T07:13:56.526Z,64.01
2023-02-01T07:16:23.949Z,66.11
2023-02-01T07:18:53.399Z,64.41
2023-02-01T07:21:21.507Z,63.73
2023-02-01T07:23:48.722Z,62.32
2023-02-01T07:26:16.335Z,61.25
2023-02-01T07:28:43.833Z,60.56
2023-02-01T07:31:14.864Z,60.06
2023-02-01T07:33:42.988Z,60.28
2023-02-01T07:36:14.608Z,59.90
2023-02-01T07:38:42.135Z,59.47
2023-02-01T07:41:10.317Z,57.67
2023-02-01T07:43:37.911Z,59.28
2023-02-01T07:46:06.342Z,64.02
2023-02-01T07:48:37.858Z,64.09
2023-02-01T07:51:12.633Z,63.23
2023-02-01T07:53:41.520Z,62.29
2023-02-01T07:56:20.528Z,60.91
2023-02-01T07:58:57.386Z,60.68
2023-02-01T08:01:27.106Z,60.19
2023-02-01T08:04:05.047Z,60.06
2023-02-01T08:06:35.859Z,59.46
2023-02-01T08:09:03.768Z,58.41
2023-02-01T08:11:32.153Z,59.51
2023-02-01T08:14:01.081Z,63.17
2023-02-01T08:16:28.550Z,64.12
2023-02-01T08:18:56.517Z,63.81
2023-02-01T08:21:26.410Z,63.04
2023-02-01T08:23:54.247Z,62.61
2023-02-01T08:26:24.112Z,62.19
2023-02-01T08:28:54.365Z,61.67
2023-02-01T08:31:24.272Z,61.08
2023-02-01T08:33:57.070Z,61.44
2023-02-01T08:36:26.156Z,61.18
2023-02-01T08:38:54.150Z,60.49
2023-02-01T08:41:25.057Z,59.84
2023-02-01T08:43:52.651Z,60.15
2023-02-01T08:46:20.183Z,59.90
2023-02-01T08:48:49.173Z,60.68
2023-02-01T08:51:18.731Z,60.33
2023-02-01T08:53:46.643Z,59.86
2023-02-01T08:56:16.315Z,59.72
2023-02-01T08:58:44.230Z,59.83
2023-02-01T09:01:14.548Z,58.90
2023-02-01T09:03:42.490Z,61.01
2023-02-01T09:06:12.598Z,63.24
2023-02-01T09:08:40.910Z,63.49
2023-02-01T09:11:12.953Z,63.89
2023-02-01T09:13:40.220Z,64.11
2023-02-01T09:16:07.883Z,64.20
2023-02-01T09:18:35.942Z,63.58
2023-02-01T09:21:09.312Z,62.61
2023-02-01T09:23:37.487Z,62.14
2023-02-01T09:26:06.044Z,61.15
2023-02-01T09:28:33.467Z,60.32
2023-02-01T09:31:02.751Z,59.67
2023-02-01T09:33:30.657Z,59.55
2023-02-01T09:36:02.975Z,61.64
2023-02-01T09:38:31.820Z,63.75
2023-02-01T09:41:01.979Z,63.26
2023-02-01T09:43:44.471Z,62.14
2023-02-01T09:46:26.725Z,61.06
2023-02-01T09:48:57.131Z,60.35
2023-02-01T09:51:34.678Z,59.99
2023-02-01T09:54:09.896Z,60.01
2023-02-01T09:56:45.780Z,60.10
2023-02-01T09:59:51.519Z,59.82
2023-02-01T10:02:25.895Z,59.64
2023-02-01T10:04:56.902Z,58.97
2023-02-01T10:07:58.294Z,60.50
2023-02-01T10:10:46.487Z,63.88
2023-02-01T10:13:19.494Z,63.14
2023-02-01T10:15:56.959Z,61.92
2023-02-01T10:18:46.434Z,61.21
2023-02-01T10:21:43.145Z,60.87
2023-02-01T10:24:23.870Z,60.42
2023-02-01T10:27:09.163Z,60.26
2023-02-01T10:29:40.981Z,58.89
2023-02-01T10:32:39.071Z,61.10
2023-02-01T10:35:34.956Z,62.81
2023-02-01T10:38:15.614Z,62.15
2023-02-01T10:40:43.237Z,60.23
2023-02-01T10:43:11.316Z,59.21
2023-02-01T10:45:41.333Z,58.93
2023-02-01T10:48:10.217Z,59.55
2023-02-01T10:50:56.907Z,63.38
2023-02-01T10:53:33.472Z,62.36
2023-02-01T10:56:08.512Z,60.92
2023-02-01T10:58:38.563Z,60.05
2023-02-01T11:01:09.126Z,59.82
2023-02-01T11:04:04.933Z,58.42
2023-02-01T11:06:39.416Z,59.76
2023-02-01T11:09:09.449Z,61.43
2023-02-01T11:11:48.941Z,64.26
2023-02-01T11:14:25.614Z,63.68
2023-02-01T11:17:01.608Z,61.95
2023-02-01T11:19:29.500Z,61.10
2023-02-01T11:22:00.048Z,60.41
2023-02-01T11:24:36.480Z,59.31
2023-02-01T11:27:07.184Z,58.22
2023-02-01T11:29:49.299Z,60.66
2023-02-01T11:32:19.282Z,62.60
2023-02-01T11:34:59.492Z,61.99
2023-02-01T11:37:35.942Z,60.09
2023-02-01T11:40:24.393Z,58.79
2023-02-01T11:43:01.023Z,58.43
2023-02-01T11:45:31.093Z,63.23
2023-02-01T11:48:00.085Z,63.89
2023-02-01T11:50:46.057Z,62.09
2023-02-01T11:53:37.953Z,60.26
2023-02-01T11:56:18.579Z,59.70
2023-02-01T11:59:00.876Z,58.92
2023-02-01T12:01:41.880Z,61.74
2023-02-01T12:04:41.133Z,64.06
2023-02-01T12:07:11.716Z,63.12
2023-02-01T12:10:19.607Z,61.89
2023-02-01T12:13:07.799Z,61.13
2023-02-01T12:15:58.303Z,61.10
2023-02-01T12:18:46.828Z,60.88
2023-02-01T12:21:41.424Z,58.19
2023-02-01T12:24:33.299Z,59.31
2023-02-01T12:27:12.706Z,62.33
2023-02-01T12:29:50.157Z,64.81
2023-02-01T12:32:32.466Z,63.76
2023-02-01T12:35:40.387Z,62.87
2023-02-01T12:38:29.160Z,61.50
2023-02-01T12:41:11.771Z,59.98
2023-02-01T12:43:46.881Z,59.78
2023-02-01T12:46:18.395Z,57.90
2023-02-01T12:49:01.023Z,58.18
2023-02-01T12:51:37.670Z,63.75
2023-02-01T12:54:36.852Z,64.34
2023-02-01T12:57:16.889Z,63.08
2023-02-01T13:03:00.990Z,60.36
2023-02-01T13:06:38.294Z,61.77
2023-02-01T13:10:32.354Z,65.58
2023-02-01T13:14:20.354Z,64.48
2023-02-01T13:18:11.651Z,62.37
2023-02-01T13:22:02.444Z,62.06
2023-02-01T13:25:50.683Z,61.12
2023-02-01T13:29:39.365Z,60.25
2023-02-01T13:33:54.545Z,60.54
2023-02-01T13:37:29.635Z,60.09
2023-02-01T13:41:35.458Z,57.87
2023-02-01T13:45:32.117Z,59.82
2023-02-01T13:49:35.471Z,65.48
2023-02-01T13:53:29.235Z,63.78
2023-02-01T13:57:23.226Z,61.83
2023-02-01T14:01:32.411Z,60.93
2023-02-01T14:05:31.389Z,61.18
2023-02-01T14:09:25.785Z,60.72
2023-02-01T14:13:25.323Z,60.22
2023-02-01T14:17:13.372Z,61.57
2023-02-01T14:21:23.034Z,61.20
2023-02-01T14:25:06.541Z,57.20
2023-02-01T14:28:54.696Z,61.52
2023-02-01T14:33:00.726Z,64.47
2023-02-01T14:36:50.050Z,63.96
2023-02-01T14:40:47.653Z,63.07
2023-02-01T14:44:58.625Z,62.84
2023-02-01T14:49:00.674Z,62.92
2023-02-01T14:52:56.659Z,62.77
2023-02-01T14:56:47.876Z,62.51
2023-02-01T15:00:37.767Z,61.80
2023-02-01T15:04:30.376Z,61.92
2023-02-01T15:08:18.818Z,61.38
2023-02-01T15:12:08.980Z,61.56
2023-02-01T15:16:08.662Z,61.23
2023-02-01T15:24:00.874Z,61.34
2023-02-01T15:27:50.703Z,61.20
2023-02-01T15:31:41.580Z,62.30
2023-02-01T15:35:48.598Z,62.02
2023-02-01T15:39:34.889Z,62.51
2023-02-01T15:43:31.778Z,62.35
2023-02-01T15:51:08.661Z,62.74
2023-02-01T15:55:02.445Z,62.87
2023-02-01T15:58:53.182Z,62.21
2023-02-01T16:02:42.278Z,62.61
2023-02-01T16:06:40.051Z,61.86
2023-02-01T16:10:33.362Z,61.55
2023-02-01T16:14:22.376Z,62.17
2023-02-01T16:18:10.284Z,62.30
2023-02-01T16:21:59.092Z,62.84
2023-02-01T16:25:46.892Z,63.41
2023-02-01T16:29:35.655Z,63.31
2023-02-01T16:33:25.786Z,62.38
2023-02-01T16:37:22.600Z,61.96
2023-02-01T16:41:12.712Z,61.30
2023-02-01T16:45:01.429Z,60.16
2023-02-01T16:48:52.590Z,61.48
2023-02-01T16:52:42.248Z,60.39
2023-02-01T16:56:29.921Z,57.89
2023-02-01T17:00:24.545Z,60.89
2023-02-01T17:04:07.334Z,65.86
2023-02-01T17:07:57.738Z,65.22
2023-02-01T17:11:47.811Z,62.48
2023-02-01T17:15:37.037Z,61.59
2023-02-01T17:19:26.168Z,60.76
2023-02-01T17:23:14.396Z,59.69
2023-02-01T17:27:01.440Z,60.21
2023-02-01T17:30:50.931Z,64.60
2023-02-01T17:34:38.605Z,64.14
2023-02-01T17:38:28.422Z,62.81
2023-02-01T17:42:16.213Z,62.82
2023-02-01T17:46:10.810Z,60.69
2023-02-01T17:49:58.895Z,59.37
2023-02-01T17:53:49.743Z,60.87
2023-02-01T17:57:38.448Z,64.64
2023-02-01T18:01:27.437Z,64.87
2023-02-01T18:05:14.488Z,63.90
2023-02-01T18:08:45.503Z,61.68
2023-02-01T18:12:12.318Z,61.39
2023-02-01T18:15:59.897Z,60.42
2023-02-01T18:19:46.830Z,59.70
2023-02-01T18:23:13.976Z,58.59
2023-02-01T18:26:41.260Z,64.53
2023-02-01T18:30:17.129Z,64.50
2023-02-01T18:33:45.608Z,62.77
2023-02-01T18:37:36.108Z,60.96
2023-02-01T18:41:31.654Z,60.35
2023-02-01T18:45:21.501Z,60.26
2023-02-01T18:49:09.299Z,61.15
2023-02-01T18:52:59.774Z,60.39
2023-02-01T18:56:47.442Z,59.12
2023-02-01T19:00:35.670Z,65.09
2023-02-01T19:04:25.670Z,65.43
2023-02-01T19:07:54.737Z,63.32
2023-02-01T19:11:24.391Z,61.70
2023-02-01T19:14:54.600Z,60.79
2023-02-01T19:18:41.328Z,60.17
2023-02-01T19:22:09.005Z,61.27
2023-02-01T19:25:39.418Z,64.05
2023-02-01T19:28:41.357Z,61.16
2023-02-01T19:31:52.832Z,60.89
2023-02-01T19:34:40.013Z,60.07
2023-02-01T19:38:07.006Z,60.04
2023-02-01T19:41:54.028Z,59.61
2023-02-01T19:45:31.222Z,63.06
2023-02-01T19:48:58.043Z,63.81
2023-02-01T19:52:07.114Z,62.24
2023-02-01T19:55:34.585Z,62.10
2023-02-01T19:59:01.485Z,61.59
2023-02-01T20:02:15.173Z,60.74
2023-02-01T20:05:45.326Z,60.35
2023-02-01T20:11:54.839Z,61.97
2023-02-01T20:14:27.357Z,63.98
2023-02-01T20:16:54.614Z,63.15
2023-02-01T20:19:23.113Z,62.54
2023-02-01T20:21:50.379Z,61.33
2023-02-01T20:24:18.443Z,59.90
2023-02-01T20:26:47.929Z,58.67
2023-02-01T20:29:15.561Z,59.99
2023-02-01T20:31:44.956Z,63.01
2023-02-01T20:34:13.623Z,66.06
2023-02-01T20:36:40.922Z,65.95
2023-02-01T20:39:08.608Z,65.16
2023-02-01T20:41:35.888Z,63.42
2023-02-01T20:44:03.115Z,63.56
2023-02-01T20:46:30.372Z,63.63
2023-02-01T20:48:57.713Z,63.10
2023-02-01T20:51:24.676Z,63.30
2023-02-01T20:53:54.233Z,63.12
2023-02-01T20:56:22.247Z,62.98
2023-02-01T20:58:49.261Z,62.65
2023-02-01T21:01:16.880Z,62.16
2023-02-01T21:03:44.463Z,61.39
2023-02-01T21:06:13.719Z,61.17
2023-02-01T21:08:41.684Z,60.01
2023-02-01T21:11:11.564Z,60.61
2023-02-01T21:13:44.386Z,60.90
2023-02-01T21:16:13.848Z,61.07
2023-02-01T21:18:41.235Z,60.56
2023-02-01T21:21:15.168Z,59.72
2023-02-01T21:23:50.952Z,58.79
2023-02-01T21:26:22.745Z,59.02
2023-02-01T21:28:51.662Z,64.35
2023-02-01T21:31:21.419Z,67.00
2023-02-01T21:33:49.868Z,65.74
2023-02-01T21:36:22.711Z,64.94
2023-02-01T21:38:52.363Z,64.43
2023-02-01T21:41:40.434Z,64.29
2023-02-01T21:44:08.081Z,63.43
2023-02-01T21:46:35.421Z,63.20
2023-02-01T21:49:05.082Z,61.74
2023-02-01T21:51:41.334Z,62.47
2023-02-01T21:54:10.736Z,61.73
2023-02-01T21:56:39.257Z,61.32
2023-02-01T21:59:07.778Z,61.45
2023-02-01T22:01:37.537Z,60.85
2023-02-01T22:04:04.786Z,60.73
2023-02-01T22:06:37.643Z,61.09
2023-02-01T22:09:06.038Z,60.70
2023-02-01T22:11:33.978Z,60.21
2023-02-01T22:14:01.375Z,59.99
2023-02-01T22:16:30.874Z,60.28
2023-02-01T22:18:59.878Z,58.41
2023-02-01T22:21:30.935Z,61.52
2023-02-01T22:24:00.087Z,64.62
2023-02-01T22:26:28.305Z,64.71
2023-02-01T22:28:55.809Z,64.04
2023-02-01T22:31:23.933Z,64.85
2023-02-01T22:33:51.516Z,65.47
2023-02-01T22:36:19.684Z,64.65
2023-02-01T22:38:48.850Z,64.73
2023-02-01T22:41:16.082Z,62.97
2023-02-01T22:43:45.110Z,63.35
2023-02-01T22:46:18.337Z,63.43
2023-02-01T22:48:46.859Z,63.73
2023-02-01T22:51:17.947Z,63.70
2023-02-01T22:53:45.572Z,62.94
2023-02-01T22:56:17.386Z,63.31
2023-02-01T22:58:44.461Z,63.66
2023-02-01T23:01:13.704Z,64.64
2023-02-01T23:03:41.896Z,64.25
2023-02-01T23:06:09.757Z,63.84
2023-02-01T23:08:39.810Z,62.81
2023-02-01T23:11:10.093Z,62.49
2023-02-01T23:13:39.592Z,62.33
2023-02-01T23:16:15.971Z,62.28
2023-02-01T23:18:43.233Z,61.96
2023-02-01T23:21:13.153Z,61.33
2023-02-01T23:23:40.976Z,61.84
2023-02-01T23:26:08.146Z,61.24
2023-02-01T23:28:36.036Z,60.79
2023-02-01T23:31:11.769Z,61.05
2023-02-01T23:33:39.111Z,61.28
2023-02-01T23:36:11.104Z,60.84
2023-02-01T23:38:38.877Z,60.84
2023-02-01T23:41:08.123Z,60.91
2023-02-01T23:43:54.087Z,60.89
2023-02-01T23:46:21.536Z,60.38
2023-02-01T23:48:49.813Z,60.34
2023-02-01T23:51:18.074Z,61.59
2023-02-01T23:53:45.237Z,61.44
2023-02-01T23:56:42.779Z,61.31
2023-02-01T23:59:20.146Z,60.40
